Time;durP1;ratioP1;P1;durP2;ratioP2;P2;SDS_P1;SDS_P2;PMS_P1;PMS_P2;Temp;Humidity;BMP_temperature;BMP_pressure;BME280_temperature;BME280_humidity;BME280_pressure;Samples;Min_cycle;Max_cycle;Signal;HPM_P1;HPM_P2
2022/06/15 00:01:12;;;;;;;12.82;7.72;;;;;;;-144.65;100.00;64500.88;5055996;28;20478;-84
2022/06/15 00:03:38;;;;;;;10.77;6.28;;;;;;;-144.65;100.00;64500.88;5055048;28;20028;-83
2022/06/15 00:06:16;;;;;;;15.35;6.75;;;;;;;-144.65;100.00;64500.88;5054532;28;20386;-81
2022/06/15 00:08:44;;;;;;;15.25;4.97;;;;;;;-144.65;100.00;64500.88;5055668;28;20067;-83
2022/06/15 00:11:19;;;;;;;7.30;5.03;;;;;;;-144.65;100.00;64500.88;5056261;28;20044;-82
2022/06/15 00:13:45;;;;;;;10.55;5.30;;;;;;;-144.65;100.00;64500.88;5056458;28;20409;-82
2022/06/15 00:16:11;;;;;;;6.85;4.50;;;;;;;-144.65;100.00;64500.88;5055431;28;20029;-82
2022/06/15 00:18:37;;;;;;;8.52;4.72;;;;;;;-144.65;100.00;64500.88;5053689;28;20106;-81
2022/06/15 00:21:05;;;;;;;10.27;6.30;;;;;;;-144.65;100.00;64500.88;5057956;28;20045;-82
2022/06/15 00:23:31;;;;;;;17.00;8.05;;;;;;;-144.65;100.00;64500.88;5059683;28;20120;-83
2022/06/15 00:25:57;;;;;;;20.88;11.27;;;;;;;-144.65;100.00;64500.88;5060261;28;20036;-82
2022/06/15 00:28:24;;;;;;;12.55;7.68;;;;;;;-144.65;100.00;64500.88;5056920;28;20053;-81
2022/06/15 00:30:50;;;;;;;12.82;7.55;;;;;;;-144.65;100.00;64500.88;5056710;28;20082;-84
2022/06/15 00:33:19;;;;;;;8.45;5.78;;;;;;;-144.65;100.00;64500.88;5054725;28;20429;-81
2022/06/15 00:35:57;;;;;;;12.00;5.38;;;;;;;-144.65;100.00;64500.88;5055242;28;20032;-82
2022/06/15 00:38:31;;;;;;;10.07;6.25;;;;;;;-144.65;100.00;64500.88;5052562;28;20515;-83
2022/06/15 00:40:57;;;;;;;10.77;6.55;;;;;;;-144.65;100.00;64500.88;5055398;28;20021;-83
2022/06/15 00:43:41;;;;;;;15.48;6.22;;;;;;;-144.65;100.00;64500.88;5056271;28;20032;-81
2022/06/15 00:46:12;;;;;;;16.15;6.93;;;;;;;-144.65;100.00;64500.88;5057324;28;20123;-83
2022/06/15 00:48:38;;;;;;;7.35;4.88;;;;;;;-144.65;100.00;64500.88;5057951;28;20032;-83
2022/06/15 00:51:03;;;;;;;13.60;6.28;;;;;;;-144.65;100.00;64500.88;5056130;28;20112;-82
2022/06/15 00:53:29;;;;;;;13.65;5.80;;;;;;;-144.65;100.00;64500.88;5056054;28;20474;-82
2022/06/15 00:55:54;;;;;;;8.38;5.47;;;;;;;-144.65;100.00;64500.88;5056927;28;20025;-83
2022/06/15 00:58:20;;;;;;;10.25;5.00;;;;;;;-144.65;100.00;64500.88;5055841;28;20020;-83
2022/06/15 01:00:47;;;;;;;10.32;5.82;;;;;;;-144.65;100.00;64500.88;5056498;28;20028;-81
2022/06/15 01:03:13;;;;;;;8.82;4.93;;;;;;;-144.65;100.00;64500.88;5055138;28;20512;-83
2022/06/15 01:05:46;;;;;;;9.35;5.45;;;;;;;-144.65;100.00;64500.88;5054581;28;20081;-82
2022/06/15 01:08:45;;;;;;;15.32;8.27;;;;;;;-144.65;100.00;64500.88;5053866;28;20036;-78
2022/06/15 01:11:33;;;;;;;20.00;10.43;;;;;;;-144.65;100.00;64500.88;5050699;28;20044;-80
2022/06/15 01:14:23;;;;;;;23.33;11.25;;;;;;;-144.65;100.00;64500.88;5051173;28;20029;-83
2022/06/15 01:17:26;;;;;;;17.70;9.93;;;;;;;-144.65;100.00;64500.88;5052397;28;20029;-81
2022/06/15 01:20:13;;;;;;;21.85;9.75;;;;;;;-144.65;100.00;64500.88;5052031;28;20364;-80
2022/06/15 01:23:16;;;;;;;18.95;8.52;;;;;;;-144.65;100.00;64500.88;5051042;28;20079;-79
2022/06/15 01:25:48;;;;;;;18.33;8.68;;;;;;;-144.65;100.00;64500.88;5053718;28;20037;-82
2022/06/15 01:28:38;;;;;;;12.25;6.43;;;;;;;-144.65;100.00;64500.88;5054982;28;20036;-80
2022/06/15 01:31:25;;;;;;;17.05;7.90;;;;;;;-144.65;100.00;64500.88;5057450;28;20031;-82
2022/06/15 01:34:15;;;;;;;18.00;9.15;;;;;;;-144.65;100.00;64500.88;5059290;28;20025;-80
2022/06/15 01:37:08;;;;;;;24.20;10.57;;;;;;;-144.65;100.00;64500.88;5057066;28;20033;-81
2022/06/15 01:39:48;;;;;;;21.48;10.00;;;;;;;-144.65;100.00;64500.88;5058481;28;20029;-81
2022/06/15 01:42:25;;;;;;;18.17;9.23;;;;;;;-144.65;100.00;64500.88;5055149;28;20029;-80
2022/06/15 01:44:55;;;;;;;10.68;6.05;;;;;;;-144.65;100.00;64500.88;5047319;28;20119;-81
2022/06/15 01:47:24;;;;;;;13.27;6.32;;;;;;;-144.65;100.00;64500.88;5054399;28;20021;-79
2022/06/15 01:50:15;;;;;;;10.63;5.15;;;;;;;-144.65;100.00;64500.88;5033022;28;20448;-80
2022/06/15 01:52:45;;;;;;;9.93;4.93;;;;;;;-144.65;100.00;64500.88;5041760;28;20028;-78
2022/06/15 01:55:32;;;;;;;7.22;5.00;;;;;;;-144.65;100.00;64500.88;5045182;28;20545;-80
2022/06/15 01:58:04;;;;;;;8.00;5.47;;;;;;;-144.65;100.00;64500.88;5054975;28;20103;-78
2022/06/15 02:00:30;;;;;;;9.70;5.95;;;;;;;-144.65;100.00;64500.88;5053923;28;20028;-79
2022/06/15 02:03:32;;;;;;;12.95;7.07;;;;;;;-144.65;100.00;64500.88;5053488;28;20025;-78
2022/06/15 02:06:27;;;;;;;13.80;6.97;;;;;;;-144.65;100.00;64500.88;5034589;28;20426;-79
2022/06/15 02:08:56;;;;;;;10.80;6.90;;;;;;;-144.65;100.00;64500.88;5041570;28;20021;-76
2022/06/15 02:11:35;;;;;;;8.68;5.50;;;;;;;-144.65;100.00;64500.88;5015238;28;20076;-77
2022/06/15 02:14:07;;;;;;;8.23;4.30;;;;;;;-144.65;100.00;64500.88;5051844;28;20033;-76
2022/06/15 02:16:41;;;;;;;7.43;4.18;;;;;;;-144.65;100.00;64500.88;5052882;28;20028;-78
2022/06/15 02:19:09;;;;;;;6.72;4.43;;;;;;;-144.65;100.00;64500.88;5052564;28;20074;-76
2022/06/15 02:21:38;;;;;;;8.85;4.05;;;;;;;-144.65;100.00;64500.88;5052931;28;20041;-77
2022/06/15 02:24:05;;;;;;;6.95;4.10;;;;;;;-144.65;100.00;64500.88;5052870;28;20029;-75
2022/06/15 02:26:36;;;;;;;6.78;4.20;;;;;;;-144.65;100.00;64500.88;5052815;28;20037;-76
2022/06/15 02:29:09;;;;;;;7.20;4.28;;;;;;;-144.65;100.00;64500.88;5052522;28;20025;-77
2022/06/15 02:31:37;;;;;;;8.30;4.40;;;;;;;-144.65;100.00;64500.88;5052656;28;20032;-78
2022/06/15 02:34:04;;;;;;;7.82;4.43;;;;;;;-144.65;100.00;64500.88;5035142;28;20029;-79
2022/06/15 02:36:32;;;;;;;11.60;4.85;;;;;;;-144.65;100.00;64500.88;5054981;28;20108;-76
2022/06/15 02:38:58;;;;;;;10.07;5.70;;;;;;;-144.65;100.00;64500.88;5057524;28;20174;-78
2022/06/15 02:41:24;;;;;;;8.73;4.75;;;;;;;-144.65;100.00;64500.88;5051513;28;20051;-76
2022/06/15 02:43:52;;;;;;;11.75;5.57;;;;;;;-144.65;100.00;64500.88;5034298;28;20017;-78
2022/06/15 02:46:18;;;;;;;9.80;4.82;;;;;;;-144.65;100.00;64500.88;5051866;28;20448;-77
2022/06/15 02:48:45;;;;;;;9.10;5.00;;;;;;;-144.65;100.00;64500.88;5034401;28;20027;-78
2022/06/15 02:51:19;;;;;;;13.27;5.10;;;;;;;-144.65;100.00;64500.88;5052188;28;20033;-78
2022/06/15 02:53:47;;;;;;;8.05;4.70;;;;;;;-144.65;100.00;64500.88;5052598;28;20186;-76
2022/06/15 02:56:14;;;;;;;8.30;4.70;;;;;;;-144.65;100.00;64500.88;5052627;28;20567;-77
2022/06/15 02:58:44;;;;;;;8.98;4.95;;;;;;;-144.65;100.00;64500.88;5052242;28;20032;-80
2022/06/15 03:01:10;;;;;;;8.95;5.38;;;;;;;-144.65;100.00;64500.88;5052081;28;20043;-76
2022/06/15 03:03:37;;;;;;;7.65;5.13;;;;;;;-144.65;100.00;64500.88;5052502;28;20028;-77
2022/06/15 03:06:06;;;;;;;9.05;5.10;;;;;;;-144.65;100.00;64500.88;5052205;28;20044;-78
2022/06/15 03:08:32;;;;;;;7.22;4.80;;;;;;;-144.65;100.00;64500.88;5052138;28;20033;-77
2022/06/15 03:10:57;;;;;;;12.02;5.55;;;;;;;-144.65;100.00;64500.88;5052413;28;20083;-77
2022/06/15 03:13:22;;;;;;;15.32;5.25;;;;;;;-144.65;100.00;64500.88;5052150;28;20096;-78
2022/06/15 03:15:48;;;;;;;8.27;4.85;;;;;;;-144.65;100.00;64500.88;5034030;28;20847;-76
2022/06/15 03:18:13;;;;;;;11.38;4.72;;;;;;;-144.65;100.00;64500.88;5051998;28;20383;-76
2022/06/15 03:20:39;;;;;;;8.60;5.00;;;;;;;-144.65;100.00;64500.88;5051850;28;20033;-77
2022/06/15 03:23:06;;;;;;;6.85;4.95;;;;;;;-144.65;100.00;64500.88;5051873;28;20120;-77
2022/06/15 03:25:33;;;;;;;7.63;4.68;;;;;;;-144.65;100.00;64500.88;5033747;28;20036;-76
2022/06/15 03:27:58;;;;;;;11.13;5.20;;;;;;;-144.65;100.00;64500.88;5051668;28;20433;-77
2022/06/15 03:30:24;;;;;;;8.65;5.43;;;;;;;-144.65;100.00;64500.88;5034000;28;20033;-76
2022/06/15 03:32:49;;;;;;;9.88;4.70;;;;;;;-144.65;100.00;64500.88;5051632;28;20083;-78
2022/06/15 03:35:15;;;;;;;7.68;4.28;;;;;;;-144.65;100.00;64500.88;5051402;28;20020;-76
2022/06/15 03:37:40;;;;;;;8.40;4.47;;;;;;;-144.65;100.00;64500.88;5051653;28;20078;-76
2022/06/15 03:40:08;;;;;;;8.10;5.03;;;;;;;-144.65;100.00;64500.88;5052075;28;20025;-78
2022/06/15 03:42:34;;;;;;;9.45;4.40;;;;;;;-144.65;100.00;64500.88;5051401;28;20024;-76
2022/06/15 03:45:00;;;;;;;10.30;4.43;;;;;;;-144.65;100.00;64500.88;5051354;28;20033;-76
2022/06/15 03:47:25;;;;;;;6.50;4.57;;;;;;;-144.65;100.00;64500.88;5051274;28;20025;-76
2022/06/15 03:49:52;;;;;;;8.38;4.57;;;;;;;-144.65;100.00;64500.88;5051249;28;20025;-76
2022/06/15 03:52:20;;;;;;;7.10;5.07;;;;;;;-144.65;100.00;64500.88;5051078;28;20021;-74
2022/06/15 03:54:46;;;;;;;10.07;5.55;;;;;;;-144.65;100.00;64500.88;5051129;28;20032;-76
2022/06/15 03:57:13;;;;;;;16.75;7.60;;;;;;;-144.65;100.00;64500.88;5050954;28;20021;-79
2022/06/15 03:59:39;;;;;;;15.75;8.32;;;;;;;-144.65;100.00;64500.88;5051070;28;20114;-77
2022/06/15 04:02:05;;;;;;;18.95;9.18;;;;;;;-144.65;100.00;64500.88;5049652;28;20056;-76
2022/06/15 04:04:30;;;;;;;16.77;7.65;;;;;;;-144.65;100.00;64500.88;5033061;28;20137;-75
2022/06/15 04:06:56;;;;;;;15.05;6.90;;;;;;;-144.65;100.00;64500.88;5032873;28;20545;-77
2022/06/15 04:09:22;;;;;;;12.70;7.03;;;;;;;-144.65;100.00;64500.88;5051195;28;20525;-78
2022/06/15 04:14:33;;;;;;;9.13;6.18;;;;;;;-144.65;100.00;64500.88;5050986;28;20406;-76
2022/06/15 04:16:59;;;;;;;11.07;5.22;;;;;;;-144.65;100.00;64500.88;5017704;28;20124;-79
2022/06/15 04:19:28;;;;;;;13.05;6.95;;;;;;;-144.65;100.00;64500.88;5030983;28;20025;-76
2022/06/15 04:21:54;;;;;;;11.85;7.07;;;;;;;-144.65;100.00;64500.88;5013107;28;20056;-79
2022/06/15 04:24:21;;;;;;;15.20;8.02;;;;;;;-144.65;100.00;64500.88;5012794;28;20033;-78
2022/06/15 04:26:48;;;;;;;12.77;7.05;;;;;;;-144.65;100.00;64500.88;5030353;28;20128;-78
2022/06/15 04:29:14;;;;;;;11.90;5.32;;;;;;;-144.65;100.00;64500.88;5030560;28;20029;-78
2022/06/15 04:31:40;;;;;;;12.02;5.88;;;;;;;-144.65;100.00;64500.88;5013171;28;20033;-77
2022/06/15 04:34:09;;;;;;;11.27;5.45;;;;;;;-144.65;100.00;64500.88;5030923;28;20029;-79
2022/06/15 04:36:36;;;;;;;9.38;5.50;;;;;;;-144.65;100.00;64500.88;5033968;28;20032;-77
2022/06/15 04:39:02;;;;;;;7.95;5.00;;;;;;;-144.65;100.00;64500.88;5045098;28;20025;-77
2022/06/15 04:41:28;;;;;;;11.68;5.40;;;;;;;-144.65;100.00;64500.88;5041579;28;20107;-78
2022/06/15 04:43:53;;;;;;;11.77;5.65;;;;;;;-144.65;100.00;64500.88;5050479;28;21354;-77
2022/06/15 04:46:19;;;;;;;9.18;5.00;;;;;;;-144.65;100.00;64500.88;5050095;28;20040;-76
2022/06/15 04:48:44;;;;;;;9.93;5.20;;;;;;;-144.65;100.00;64500.88;5051645;28;20029;-76
2022/06/15 04:51:16;;;;;;;7.80;5.28;;;;;;;-144.65;100.00;64500.88;5035886;28;20107;-75
2022/06/15 04:53:42;;;;;;;12.88;4.85;;;;;;;-144.65;100.00;64500.88;5046748;28;20084;-76
2022/06/15 04:56:07;;;;;;;8.00;5.43;;;;;;;-144.65;100.00;64500.88;5033159;28;20462;-72
2022/06/15 04:58:32;;;;;;;12.52;4.75;;;;;;;-144.65;100.00;64500.88;5050084;28;20029;-76
2022/06/15 05:00:58;;;;;;;7.82;5.47;;;;;;;-144.65;100.00;64500.88;5045361;28;20030;-75
2022/06/15 05:03:23;;;;;;;11.25;5.75;;;;;;;-144.65;100.00;64500.88;5031077;28;20037;-76
2022/06/15 05:05:49;;;;;;;9.80;4.93;;;;;;;-144.65;100.00;64500.88;5020621;28;20029;-75
2022/06/15 05:08:14;;;;;;;8.90;5.05;;;;;;;-144.65;100.00;64500.88;5053874;28;20021;-75
2022/06/15 05:10:39;;;;;;;9.13;5.00;;;;;;;-144.65;100.00;64500.88;5054517;28;20041;-77
2022/06/15 05:13:05;;;;;;;7.15;4.88;;;;;;;-144.65;100.00;64500.88;5057997;28;20036;-74
2022/06/15 05:15:31;;;;;;;6.07;4.57;;;;;;;-144.65;100.00;64500.88;5055322;28;20025;-75
2022/06/15 05:18:04;;;;;;;9.07;5.22;;;;;;;-144.65;100.00;64500.88;5049795;28;20092;-75
2022/06/15 05:20:29;;;;;;;7.57;4.40;;;;;;;-144.65;100.00;64500.88;5052962;28;20035;-76
2022/06/15 05:22:55;;;;;;;11.20;5.22;;;;;;;-144.65;100.00;64500.88;5052761;28;20018;-76
2022/06/15 05:25:21;;;;;;;10.18;5.22;;;;;;;-144.65;100.00;64500.88;5052068;28;20032;-76
2022/06/15 05:27:47;;;;;;;8.45;5.32;;;;;;;-144.65;100.00;64500.88;5053103;28;20386;-75
2022/06/15 05:30:13;;;;;;;8.25;5.28;;;;;;;-144.65;100.00;64500.88;5045222;28;20035;-75
2022/06/15 05:32:39;;;;;;;9.20;5.55;;;;;;;-144.65;100.00;64500.88;5033280;28;20033;-75
2022/06/15 05:35:05;;;;;;;9.23;5.65;;;;;;;-144.65;100.00;64500.88;5015229;28;20028;-74
2022/06/15 05:37:31;;;;;;;7.10;5.13;;;;;;;-144.65;100.00;64500.88;5032392;28;20422;-74
2022/06/15 05:39:57;;;;;;;10.63;6.07;;;;;;;-144.65;100.00;64500.88;5033407;28;20021;-75
2022/06/15 05:42:22;;;;;;;6.57;5.03;;;;;;;-144.65;100.00;64500.88;5032887;28;20036;-76
2022/06/15 05:44:53;;;;;;;9.98;6.32;;;;;;;-144.65;100.00;64500.88;5032948;28;20029;-75
2022/06/15 05:47:18;;;;;;;15.15;5.47;;;;;;;-144.65;100.00;64500.88;5015469;28;20490;-75
2022/06/15 05:49:43;;;;;;;10.30;4.85;;;;;;;-144.65;100.00;64500.88;5033168;28;20037;-74
2022/06/15 05:52:09;;;;;;;11.35;5.82;;;;;;;-144.65;100.00;64500.88;5033414;28;20478;-73
2022/06/15 05:54:35;;;;;;;10.85;6.05;;;;;;;-144.65;100.00;64500.88;5033181;28;20036;-74
2022/06/15 05:57:00;;;;;;;12.40;6.22;;;;;;;-144.65;100.00;64500.88;5033196;28;20033;-74
2022/06/15 05:59:25;;;;;;;10.18;6.28;;;;;;;-144.65;100.00;64500.88;5033277;28;20079;-75
2022/06/15 06:01:51;;;;;;;11.07;5.55;;;;;;;-144.65;100.00;64500.88;5015446;28;20475;-75
2022/06/15 06:04:19;;;;;;;7.32;5.07;;;;;;;-144.65;100.00;64500.88;5015284;28;20021;-75
2022/06/15 06:06:45;;;;;;;9.05;5.80;;;;;;;-144.65;100.00;64500.88;5032891;28;20471;-74
2022/06/15 06:09:11;;;;;;;11.50;5.03;;;;;;;-144.65;100.00;64500.88;5033190;28;20025;-75
2022/06/15 06:11:37;;;;;;;8.90;5.43;;;;;;;-144.65;100.00;64500.88;5033154;28;20487;-77
2022/06/15 06:14:03;;;;;;;10.05;5.15;;;;;;;-144.65;100.00;64500.88;5032825;28;20112;-75
2022/06/15 06:16:28;;;;;;;10.90;4.88;;;;;;;-144.65;100.00;64500.88;5014913;28;20039;-73
2022/06/15 06:18:54;;;;;;;8.82;4.68;;;;;;;-144.65;100.00;64500.88;5032588;28;20533;-74
2022/06/15 06:21:20;;;;;;;10.00;4.63;;;;;;;-144.65;100.00;64500.88;5032821;28;20045;-75
2022/06/15 06:23:46;;;;;;;6.60;4.22;;;;;;;-144.65;100.00;64500.88;5032771;28;20026;-75
2022/06/15 06:26:21;;;;;;;7.53;4.47;;;;;;;-144.65;100.00;64500.88;5015234;28;20064;-75
2022/06/15 06:28:47;;;;;;;10.77;4.93;;;;;;;-144.65;100.00;64500.88;5033390;28;20029;-74
2022/06/15 06:31:12;;;;;;;8.10;5.25;;;;;;;-144.65;100.00;64500.88;5033333;28;20475;-74
2022/06/15 06:33:38;;;;;;;9.70;4.78;;;;;;;-144.65;100.00;64500.88;5015092;28;20025;-75
2022/06/15 06:36:13;;;;;;;6.88;4.25;;;;;;;-144.65;100.00;64500.88;5032889;28;20021;-75
2022/06/15 06:38:38;;;;;;;9.18;4.70;;;;;;;-144.65;100.00;64500.88;5015051;28;20563;-74
2022/06/15 06:41:04;;;;;;;8.98;4.10;;;;;;;-144.65;100.00;64500.88;5015187;28;20124;-73
2022/06/15 06:43:30;;;;;;;7.40;4.57;;;;;;;-144.65;100.00;64500.88;5032486;28;20406;-74
2022/06/15 06:45:56;;;;;;;9.88;3.95;;;;;;;-144.65;100.00;64500.88;5032386;28;20029;-74
2022/06/15 06:48:21;;;;;;;10.15;4.57;;;;;;;-144.65;100.00;64500.88;5032584;28;20033;-74
2022/06/15 06:50:47;;;;;;;5.78;4.35;;;;;;;-144.65;100.00;64500.88;5032736;28;20041;-74
2022/06/15 06:53:14;;;;;;;6.43;3.95;;;;;;;-144.65;100.00;64500.88;5032536;28;20037;-74
2022/06/15 06:55:40;;;;;;;7.03;4.10;;;;;;;-144.65;100.00;64500.88;5032500;28;20155;-74
2022/06/15 06:58:05;;;;;;;11.45;4.80;;;;;;;-144.65;100.00;64500.88;5014623;28;20029;-76
2022/06/15 07:00:33;;;;;;;7.88;4.32;;;;;;;-144.65;100.00;64500.88;5015101;28;20025;-75
2022/06/15 07:03:00;;;;;;;8.93;4.18;;;;;;;-144.65;100.00;64500.88;5035215;28;20037;-76
2022/06/15 07:05:25;;;;;;;7.65;4.40;;;;;;;-144.65;100.00;64500.88;5015902;28;20061;-74
2022/06/15 07:07:51;;;;;;;12.57;4.97;;;;;;;-144.65;100.00;64500.88;5014545;28;20568;-75
2022/06/15 07:10:16;;;;;;;9.18;4.40;;;;;;;-144.65;100.00;64500.88;5032485;28;20017;-74
2022/06/15 07:12:42;;;;;;;6.53;4.22;;;;;;;-144.65;100.00;64500.88;5031920;28;20057;-74
2022/06/15 07:15:10;;;;;;;7.07;3.92;;;;;;;-144.65;100.00;64500.88;5032064;28;20104;-74
2022/06/15 07:17:35;;;;;;;6.70;3.65;;;;;;;-144.65;100.00;64500.88;5031933;28;20513;-74
2022/06/15 07:20:01;;;;;;;6.65;3.85;;;;;;;-144.65;100.00;64500.88;5032158;28;20069;-73
2022/06/15 07:22:26;;;;;;;5.90;3.55;;;;;;;-144.65;100.00;64500.88;5032002;28;20076;-75
2022/06/15 07:24:51;;;;;;;7.03;3.60;;;;;;;-144.65;100.00;64500.88;5031926;28;20065;-74
2022/06/15 07:27:17;;;;;;;8.75;4.32;;;;;;;-144.65;100.00;64500.88;5031239;28;20128;-75
2022/06/15 07:29:43;;;;;;;5.20;3.60;;;;;;;-144.65;100.00;64500.88;5031738;28;20039;-74
2022/06/15 07:32:08;;;;;;;7.95;3.65;;;;;;;-144.65;100.00;64500.88;5013711;28;20738;-75
2022/06/15 07:34:34;;;;;;;6.78;3.70;;;;;;;-144.65;100.00;64500.88;5031599;28;20034;-75
2022/06/15 07:36:59;;;;;;;6.50;3.40;;;;;;;-144.65;100.00;64500.88;5031771;28;20025;-75
2022/06/15 07:39:29;;;;;;;9.07;3.92;;;;;;;-144.65;100.00;64500.88;5013758;28;20120;-76
2022/06/15 07:41:55;;;;;;;9.05;3.63;;;;;;;-144.65;100.00;64500.88;5031865;28;21529;-75
2022/06/15 07:44:22;;;;;;;7.57;3.88;;;;;;;-144.65;100.00;64500.88;5031466;28;20025;-75
2022/06/15 07:46:48;;;;;;;5.82;4.10;;;;;;;-144.65;100.00;64500.88;5031449;28;20033;-74
2022/06/15 07:52:01;;;;;;;6.63;3.20;;;;;;;-144.65;100.00;64500.88;5031974;28;20088;-76
2022/06/15 07:54:28;;;;;;;5.90;3.63;;;;;;;-144.65;100.00;64500.88;5031276;28;20060;-74
2022/06/15 07:56:56;;;;;;;9.10;3.67;;;;;;;-144.65;100.00;64500.88;5031285;28;20032;-74
2022/06/15 07:59:22;;;;;;;7.00;4.00;;;;;;;-144.65;100.00;64500.88;5031327;28;20060;-75
2022/06/15 08:01:49;;;;;;;10.23;4.30;;;;;;;-144.65;100.00;64500.88;5031274;28;20033;-75
2022/06/15 08:04:15;;;;;;;6.47;3.15;;;;;;;-144.65;100.00;64500.88;5031300;28;20030;-74
2022/06/15 08:06:43;;;;;;;9.43;3.95;;;;;;;-144.65;100.00;64500.88;5031069;28;20056;-76
2022/06/15 08:09:10;;;;;;;10.80;4.22;;;;;;;-144.65;100.00;64500.88;5031127;28;20056;-76
2022/06/15 08:11:37;;;;;;;6.47;3.28;;;;;;;-144.65;100.00;64500.88;5031821;28;20037;-74
2022/06/15 08:14:04;;;;;;;4.85;3.45;;;;;;;-144.65;100.00;64500.88;5013328;28;20053;-74
2022/06/15 08:16:30;;;;;;;5.28;3.20;;;;;;;-144.65;100.00;64500.88;5030848;28;20021;-74
2022/06/15 08:18:57;;;;;;;8.75;3.60;;;;;;;-144.65;100.00;64500.88;5030597;28;20542;-74
2022/06/15 08:21:29;;;;;;;6.32;3.60;;;;;;;-144.65;100.00;64500.88;5030637;28;20041;-72
2022/06/15 08:23:57;;;;;;;5.97;3.50;;;;;;;-144.65;100.00;64500.88;5030620;28;20474;-74
2022/06/15 08:26:28;;;;;;;7.38;3.03;;;;;;;-144.65;100.00;64500.88;5030611;28;20055;-73
2022/06/15 08:28:56;;;;;;;4.93;3.05;;;;;;;-144.65;100.00;64500.88;5030669;28;20037;-73
2022/06/15 08:31:22;;;;;;;7.20;3.08;;;;;;;-144.65;100.00;64500.88;5013080;28;20059;-73
2022/06/15 08:33:47;;;;;;;5.50;3.20;;;;;;;-144.65;100.00;64500.88;5030656;28;20022;-73
2022/06/15 08:36:14;;;;;;;7.57;3.33;;;;;;;-144.65;100.00;64500.88;5030626;28;20029;-72
2022/06/15 08:38:40;;;;;;;6.97;3.33;;;;;;;-144.65;100.00;64500.88;5029478;28;20050;-73
2022/06/15 08:41:12;;;;;;;7.22;3.65;;;;;;;-144.65;100.00;64500.88;5013110;28;20179;-73
2022/06/15 08:43:58;;;;;;;4.30;3.17;;;;;;;-144.65;100.00;64500.88;5030533;28;20091;-74
2022/06/15 08:47:02;;;;;;;5.07;3.05;;;;;;;-144.65;100.00;64500.88;5005505;28;20153;-73
2022/06/15 08:50:05;;;;;;;5.78;3.20;;;;;;;-144.65;100.00;64500.88;4991218;28;20037;-73
2022/06/15 08:52:39;;;;;;;9.15;3.60;;;;;;;-144.65;100.00;64500.88;4969520;28;20412;-72
2022/06/15 08:55:24;;;;;;;9.95;3.10;;;;;;;-144.65;100.00;64500.88;5020642;28;20041;-73
2022/06/15 08:57:54;;;;;;;7.43;3.90;;;;;;;-144.65;100.00;64500.88;5019686;28;20128;-73
2022/06/15 09:00:26;;;;;;;8.93;4.00;;;;;;;-144.65;100.00;64500.88;5030376;28;20025;-73
2022/06/15 09:03:16;;;;;;;17.95;3.40;;;;;;;-144.65;100.00;64500.88;5030338;28;20033;-74
2022/06/15 09:06:02;;;;;;;4.57;2.95;;;;;;;-144.65;100.00;64500.88;5030223;28;20033;-73
2022/06/15 09:09:01;;;;;;;5.05;3.10;;;;;;;-144.65;100.00;64500.88;5030125;28;20068;-73
2022/06/15 09:11:45;;;;;;;8.13;3.53;;;;;;;-144.65;100.00;64500.88;5013035;28;20179;-72
2022/06/15 09:14:36;;;;;;;7.80;3.55;;;;;;;-144.65;100.00;64500.88;5030375;28;20026;-74
2022/06/15 09:17:08;;;;;;;8.55;3.33;;;;;;;-144.65;100.00;64500.88;5033228;28;20051;-73
2022/06/15 09:20:01;;;;;;;4.60;3.28;;;;;;;-144.65;100.00;64500.88;5030489;28;20040;-73
2022/06/15 09:22:34;;;;;;;6.00;3.00;;;;;;;-144.65;100.00;64500.88;5029901;28;20410;-73
2022/06/15 09:25:12;;;;;;;5.45;3.40;;;;;;;-144.65;100.00;64500.88;5030073;28;20035;-73
2022/06/15 09:27:46;;;;;;;5.25;3.03;;;;;;;-144.65;100.00;64500.88;5012479;28;20486;-74
2022/06/15 09:30:19;;;;;;;12.98;3.90;;;;;;;-144.65;100.00;64500.88;5030238;28;20102;-74
2022/06/15 09:32:56;;;;;;;5.27;2.80;;;;;;;-144.65;100.00;64500.88;5029845;28;20029;-73
2022/06/15 09:35:34;;;;;;;7.18;3.80;;;;;;;-144.65;100.00;64500.88;5032928;28;20064;-74
2022/06/15 09:38:02;;;;;;;4.75;2.90;;;;;;;-144.65;100.00;64500.88;5029964;28;20455;-75
2022/06/15 09:40:41;;;;;;;5.40;3.20;;;;;;;-144.65;100.00;64500.88;5030506;28;20029;-73
2022/06/15 09:43:39;;;;;;;7.00;3.25;;;;;;;-144.65;100.00;64500.88;5029874;28;20022;-74
2022/06/15 09:46:39;;;;;;;5.93;2.75;;;;;;;-144.65;100.00;64500.88;5029842;28;20034;-73
2022/06/15 09:49:33;;;;;;;4.47;3.17;;;;;;;-144.65;100.00;64500.88;5046007;28;20112;-74
2022/06/15 09:52:23;;;;;;;10.50;3.30;;;;;;;-144.65;100.00;64500.88;5041017;28;20523;-74
2022/06/15 09:55:07;;;;;;;7.65;3.13;;;;;;;-144.65;100.00;64500.88;5043144;28;20033;-73
2022/06/15 09:57:35;;;;;;;16.98;3.15;;;;;;;-144.65;100.00;64500.88;5041524;28;20033;-72
2022/06/15 10:00:04;;;;;;;3.70;2.80;;;;;;;-144.65;100.00;64500.88;5041383;28;20047;-75
2022/06/15 10:02:34;;;;;;;4.13;2.60;;;;;;;-144.65;100.00;64500.88;5041195;28;20029;-73
2022/06/15 10:05:01;;;;;;;5.15;3.10;;;;;;;-144.65;100.00;64500.88;5041467;28;20020;-73
2022/06/15 10:07:33;;;;;;;5.93;3.38;;;;;;;-144.65;100.00;64500.88;5042622;28;20105;-73
2022/06/15 10:10:16;;;;;;;5.00;3.25;;;;;;;-144.65;100.00;64500.88;5024457;28;20427;-74
2022/06/15 10:13:04;;;;;;;6.20;3.58;;;;;;;-144.65;100.00;64500.88;5042528;28;20029;-73
2022/06/15 10:15:32;;;;;;;5.20;3.13;;;;;;;-144.65;100.00;64500.88;5042133;28;20041;-72
2022/06/15 10:18:02;;;;;;;8.20;3.53;;;;;;;-144.65;100.00;64500.88;5043797;28;20043;-72
2022/06/15 10:20:35;;;;;;;4.38;3.15;;;;;;;-144.65;100.00;64500.88;5049485;28;20045;-72
2022/06/15 10:23:05;;;;;;;6.20;3.65;;;;;;;-144.65;100.00;64500.88;5048038;28;20044;-72
2022/06/15 10:25:36;;;;;;;4.07;3.17;;;;;;;-144.65;100.00;64500.88;5041125;28;20171;-74
2022/06/15 10:28:20;;;;;;;6.38;3.40;;;;;;;-144.65;100.00;64500.88;5047458;28;20366;-73
2022/06/15 10:30:57;;;;;;;3.97;2.85;;;;;;;-144.65;100.00;64500.88;5023553;28;20478;-76
2022/06/15 10:33:23;;;;;;;6.20;3.58;;;;;;;-144.65;100.00;64500.88;5039755;28;20063;-74
2022/06/15 10:35:56;;;;;;;4.22;3.33;;;;;;;-144.65;100.00;64500.88;5024031;28;20033;-74
2022/06/15 10:38:23;;;;;;;4.75;3.45;;;;;;;-144.65;100.00;64500.88;5037480;28;20017;-73
2022/06/15 10:43:45;;;;;;;4.13;3.35;;;;;;;-144.65;100.00;64500.88;5040455;28;20393;-73
2022/06/15 10:46:10;;;;;;;4.90;3.72;;;;;;;-144.65;100.00;64500.88;5040353;28;20044;-74
2022/06/15 10:48:44;;;;;;;3.97;3.35;;;;;;;-144.65;100.00;64500.88;5023720;28;20029;-73
2022/06/15 10:51:38;;;;;;;5.85;3.85;;;;;;;-144.65;100.00;64500.88;5042270;28;20033;-74
2022/06/15 10:54:21;;;;;;;4.35;3.38;;;;;;;-144.65;100.00;64500.88;5040492;28;20047;-80
2022/06/15 11:02:39;;;;;;;4.18;3.13;;;;;;;-144.65;100.00;64500.88;5041348;28;21709;-73
2022/06/15 11:05:13;;;;;;;7.25;3.60;;;;;;;-144.65;100.00;64500.88;5040572;28;20021;-73
2022/06/15 11:07:47;;;;;;;5.03;3.45;;;;;;;-144.65;100.00;64500.88;5046310;28;20025;-76
2022/06/15 11:10:36;;;;;;;5.22;3.53;;;;;;;-144.65;100.00;64500.88;5043039;28;20032;-73
2022/06/15 11:13:16;;;;;;;8.40;3.38;;;;;;;-144.65;100.00;64500.88;5044218;28;20033;-75
2022/06/15 11:19:09;;;;;;;5.18;3.40;;;;;;;-144.65;100.00;64500.88;4989397;28;20103;-75
2022/06/15 11:21:55;;;;;;;4.63;3.25;;;;;;;-144.65;100.00;64500.88;4982057;28;20120;-73
2022/06/15 11:24:39;;;;;;;5.95;3.47;;;;;;;-144.65;100.00;64500.88;5011183;28;20044;-77
2022/06/15 11:27:15;;;;;;;6.07;3.70;;;;;;;-144.65;100.00;64500.88;5043538;28;20032;-74
2022/06/15 11:29:46;;;;;;;3.80;3.00;;;;;;;-144.65;100.00;64500.88;5024357;28;20087;-75
2022/06/15 11:32:15;;;;;;;7.72;3.28;;;;;;;-144.65;100.00;64500.88;5020348;28;20042;-74
2022/06/15 11:35:02;;;;;;;9.43;3.00;;;;;;;-144.65;100.00;64500.88;5024495;28;20033;-73
2022/06/15 11:38:15;;;;;;;7.25;3.47;;;;;;;-144.65;100.00;64500.88;5025071;28;20025;-74
2022/06/15 11:40:52;;;;;;;4.03;3.13;;;;;;;-144.65;100.00;64500.88;4971329;28;20046;-72
2022/06/15 11:43:27;;;;;;;5.43;3.28;;;;;;;-144.65;100.00;64500.88;5018593;28;20052;-72